createdAt,value
2023-10-26T00:01:09.736Z,10.40
2023-10-26T00:06:16.561Z,10.30
2023-10-26T00:11:23.990Z,10.40
2023-10-26T00:16:30.789Z,10.40
2023-10-26T00:21:38.023Z,10.50
2023-10-26T00:26:44.996Z,10.60
2023-10-26T00:31:52.911Z,10.50
2023-10-26T00:36:59.769Z,10.60
2023-10-26T00:42:07.133Z,10.60
2023-10-26T00:47:35.078Z,10.70
2023-10-26T00:52:37.789Z,10.70
2023-10-26T00:57:45.260Z,10.80
2023-10-26T01:02:53.011Z,10.70
2023-10-26T01:08:00.955Z,10.50
2023-10-26T01:13:07.926Z,10.60
2023-10-26T01:18:14.972Z,10.60
2023-10-26T01:23:22.187Z,10.60
2023-10-26T01:28:29.592Z,10.40
2023-10-26T01:33:37.206Z,10.30
2023-10-26T01:38:44.645Z,10.10
2023-10-26T01:43:51.506Z,10.10
2023-10-26T01:48:58.595Z,10.30
2023-10-26T01:54:06.598Z,10.20
2023-10-26T01:59:14.726Z,10.40
2023-10-26T02:04:22.168Z,10.60
2023-10-26T02:09:29.057Z,10.60
2023-10-26T02:14:35.862Z,10.60
2023-10-26T02:19:42.777Z,10.60
2023-10-26T02:24:52.318Z,10.70
2023-10-26T02:30:01.451Z,10.70
2023-10-26T02:35:13.588Z,10.70
2023-10-26T02:40:20.647Z,10.70
2023-10-26T02:45:28.076Z,11.00
2023-10-26T02:50:37.709Z,10.90
2023-10-26T02:55:45.794Z,11.00
2023-10-26T03:00:57.714Z,10.80
2023-10-26T03:06:04.678Z,10.80
2023-10-26T03:11:11.651Z,10.70
2023-10-26T03:16:18.550Z,10.90
2023-10-26T03:21:25.918Z,10.70
2023-10-26T03:26:32.973Z,10.80
2023-10-26T03:31:41.615Z,10.60
2023-10-26T03:36:48.469Z,10.70
2023-10-26T03:41:55.368Z,10.60
2023-10-26T03:47:02.203Z,10.70
2023-10-26T03:52:09.613Z,10.90
2023-10-26T03:57:17.914Z,10.70
2023-10-26T04:02:26.804Z,10.80
2023-10-26T04:07:35.150Z,11.00
2023-10-26T04:12:42.201Z,11.10
2023-10-26T04:17:49.169Z,10.90
2023-10-26T04:22:56.194Z,10.80
2023-10-26T04:28:03.352Z,10.60
2023-10-26T04:33:10.242Z,10.70
2023-10-26T04:38:17.398Z,10.70
2023-10-26T04:43:24.338Z,10.60
2023-10-26T04:48:31.454Z,10.80
2023-10-26T04:53:40.259Z,10.80
2023-10-26T04:58:47.148Z,10.70
2023-10-26T05:03:55.367Z,10.60
2023-10-26T05:09:03.575Z,10.60
2023-10-26T05:14:10.933Z,10.50
2023-10-26T05:19:18.275Z,10.60
2023-10-26T05:24:25.074Z,10.60
2023-10-26T05:29:32.438Z,10.50
2023-10-26T05:34:39.373Z,10.60
2023-10-26T05:39:46.228Z,10.40
2023-10-26T05:44:52.991Z,10.30
2023-10-26T05:49:59.924Z,10.30
2023-10-26T05:55:08.461Z,10.30
2023-10-26T06:00:16.050Z,10.30
2023-10-26T06:05:22.977Z,10.20
2023-10-26T06:10:30.520Z,10.20
2023-10-26T06:15:38.387Z,10.30
2023-10-26T06:20:45.707Z,10.30
2023-10-26T06:25:54.237Z,10.40
2023-10-26T06:31:19.030Z,10.40
2023-10-26T06:36:27.031Z,10.40
2023-10-26T06:41:34.062Z,10.40
2023-10-26T06:46:40.901Z,10.40
2023-10-26T06:51:49.372Z,10.40
2023-10-26T06:56:56.852Z,10.40
2023-10-26T07:02:09.562Z,10.50
2023-10-26T07:07:12.238Z,10.40
2023-10-26T07:12:19.117Z,10.40
2023-10-26T07:17:26.265Z,10.50
2023-10-26T07:22:38.714Z,10.60
2023-10-26T07:27:45.475Z,10.70
2023-10-26T07:32:52.392Z,10.70
2023-10-26T07:38:35.966Z,10.70
2023-10-26T07:43:08.494Z,10.60
2023-10-26T07:48:15.361Z,10.60
2023-10-26T07:53:22.206Z,10.70
2023-10-26T07:58:29.555Z,10.80
2023-10-26T08:03:36.527Z,10.90
2023-10-26T08:08:43.432Z,11.20
2023-10-26T08:13:50.710Z,11.40
2023-10-26T08:18:59.804Z,11.50
2023-10-26T08:24:07.102Z,11.70
2023-10-26T08:29:21.354Z,11.80
2023-10-26T08:34:22.891Z,12.20
2023-10-26T08:39:29.711Z,12.30
2023-10-26T08:44:36.499Z,12.50
2023-10-26T08:49:50.215Z,12.60
2023-10-26T08:54:54.967Z,12.40
2023-10-26T09:00:02.063Z,12.50
2023-10-26T09:05:13.209Z,12.30
2023-10-26T09:10:36.427Z,12.40
2023-10-26T09:15:51.351Z,12.50
2023-10-26T09:21:10.194Z,12.60
2023-10-26T09:26:16.995Z,12.80
2023-10-26T09:31:27.664Z,12.80
2023-10-26T09:36:34.732Z,12.90
2023-10-26T09:41:41.903Z,13.00
2023-10-26T09:46:50.120Z,13.10
2023-10-26T09:51:57.895Z,13.20
2023-10-26T09:57:29.132Z,13.60
2023-10-26T10:02:36.075Z,13.70
2023-10-26T10:07:49.412Z,13.60
2023-10-26T10:12:57.082Z,13.60
2023-10-26T10:18:06.947Z,13.70
2023-10-26T10:23:18.570Z,13.70
2023-10-26T10:28:25.864Z,13.80
2023-10-26T10:33:33.017Z,13.90
2023-10-26T10:38:40.918Z,13.80
2023-10-26T10:43:49.874Z,13.90
2023-10-26T10:49:04.750Z,13.90
2023-10-26T10:54:33.580Z,14.00
2023-10-26T10:59:32.028Z,14.10
2023-10-26T11:05:08.801Z,14.20
2023-10-26T11:10:09.529Z,14.50
2023-10-26T11:15:16.446Z,14.30
2023-10-26T11:20:43.044Z,14.30
2023-10-26T11:25:50.221Z,14.40
2023-10-26T11:30:58.780Z,14.40
2023-10-26T11:36:12.082Z,14.30
2023-10-26T11:41:32.348Z,14.50
2023-10-26T11:46:40.914Z,14.40
2023-10-26T11:51:56.869Z,14.40
2023-10-26T11:56:56.478Z,14.50
2023-10-26T12:02:03.794Z,14.30
2023-10-26T12:07:10.696Z,14.30
2023-10-26T12:12:18.055Z,14.10
2023-10-26T12:17:25.235Z,14.30
2023-10-26T12:22:32.387Z,14.30
2023-10-26T12:28:19.625Z,14.40
2023-10-26T12:32:48.800Z,14.30
2023-10-26T12:37:56.421Z,14.20
2023-10-26T12:43:05.385Z,14.20
2023-10-26T12:48:12.301Z,14.20
2023-10-26T12:53:19.747Z,14.20
2023-10-26T12:58:27.454Z,14.30
2023-10-26T13:03:34.799Z,14.20
2023-10-26T13:08:41.705Z,14.30
2023-10-26T13:13:48.567Z,14.40
2023-10-26T13:18:55.600Z,14.20
2023-10-26T13:24:03.316Z,14.10
2023-10-26T13:29:11.053Z,13.90
2023-10-26T13:34:18.034Z,13.80
2023-10-26T13:39:25.026Z,14.00
2023-10-26T13:44:31.940Z,14.10
2023-10-26T13:49:39.093Z,14.20
2023-10-26T13:54:46.368Z,14.10
2023-10-26T13:59:53.352Z,14.10
2023-10-26T14:05:00.761Z,14.10
2023-10-26T14:10:09.359Z,14.10
2023-10-26T14:15:16.137Z,14.00
2023-10-26T14:20:23.231Z,13.90
2023-10-26T14:25:30.460Z,13.90
2023-10-26T14:30:37.857Z,13.90
2023-10-26T14:35:44.778Z,13.80
2023-10-26T14:41:00.195Z,13.80
2023-10-26T14:46:07.431Z,13.70
2023-10-26T14:51:14.608Z,13.60
2023-10-26T14:56:21.586Z,13.40
2023-10-26T15:01:29.476Z,13.20
2023-10-26T15:06:36.703Z,13.00
2023-10-26T15:11:55.032Z,12.90
2023-10-26T15:16:53.143Z,12.70
2023-10-26T15:22:00.210Z,12.70
2023-10-26T15:27:09.010Z,12.60
2023-10-26T15:32:17.955Z,12.70
2023-10-26T15:37:25.743Z,12.70
2023-10-26T15:42:34.265Z,12.50
2023-10-26T15:47:42.325Z,12.40
2023-10-26T15:52:49.648Z,12.30
2023-10-26T15:57:56.595Z,12.30
2023-10-26T16:03:03.981Z,12.30
2023-10-26T16:08:11.328Z,12.30
2023-10-26T16:13:18.440Z,12.30
2023-10-26T16:18:26.157Z,12.10
2023-10-26T16:23:33.148Z,12.10
2023-10-26T16:28:40.670Z,12.00
2023-10-26T16:33:47.686Z,11.90
2023-10-26T16:38:54.451Z,11.80
2023-10-26T16:44:01.699Z,11.80
2023-10-26T16:49:09.560Z,11.70
2023-10-26T16:54:16.640Z,11.70
2023-10-26T16:59:23.872Z,11.80
2023-10-26T17:04:30.812Z,11.80
2023-10-26T17:09:39.067Z,11.90
2023-10-26T17:14:47.680Z,12.00
2023-10-26T17:19:55.367Z,12.10
2023-10-26T17:25:02.352Z,12.10
2023-10-26T17:30:11.293Z,12.10
2023-10-26T17:35:18.073Z,12.10
2023-10-26T17:40:28.015Z,12.00
2023-10-26T17:45:35.288Z,12.00
2023-10-26T17:50:43.659Z,12.10
2023-10-26T17:56:01.859Z,12.10
2023-10-26T18:01:11.597Z,12.10
2023-10-26T18:06:20.438Z,12.00
2023-10-26T18:11:27.312Z,12.10
2023-10-26T18:16:34.988Z,12.10
2023-10-26T18:21:41.773Z,11.90
2023-10-26T18:26:48.650Z,11.90
2023-10-26T18:32:00.527Z,11.90
2023-10-26T18:37:07.621Z,11.90
2023-10-26T18:42:14.669Z,11.80
2023-10-26T18:47:21.800Z,11.90
2023-10-26T18:52:28.535Z,11.80
2023-10-26T18:57:36.056Z,11.70
2023-10-26T19:02:42.977Z,11.80
2023-10-26T19:07:49.933Z,11.80
2023-10-26T19:12:57.334Z,11.80
2023-10-26T19:18:05.259Z,11.80
2023-10-26T19:23:12.635Z,11.80
2023-10-26T19:28:21.240Z,11.70
2023-10-26T19:33:28.198Z,11.70
2023-10-26T19:38:35.042Z,11.80
2023-10-26T19:43:42.741Z,11.80
2023-10-26T19:48:51.484Z,11.80
2023-10-26T19:53:58.615Z,11.60
2023-10-26T19:59:06.753Z,11.50
2023-10-26T20:04:13.945Z,11.60
2023-10-26T20:09:24.222Z,11.50
2023-10-26T20:14:31.663Z,11.50
2023-10-26T20:19:39.914Z,11.50
2023-10-26T20:24:48.626Z,11.50
2023-10-26T20:29:55.756Z,11.50
2023-10-26T20:35:03.143Z,11.50
2023-10-26T20:40:11.493Z,11.60
2023-10-26T20:45:19.331Z,11.60
2023-10-26T20:50:28.021Z,11.70
2023-10-26T20:55:35.015Z,11.60
2023-10-26T21:00:46.250Z,11.60
2023-10-26T21:05:53.321Z,11.70
2023-10-26T21:11:03.358Z,11.70
2023-10-26T21:16:10.450Z,11.70
2023-10-26T21:21:17.898Z,11.70
2023-10-26T21:26:24.780Z,11.80
2023-10-26T21:31:32.116Z,11.70
2023-10-26T21:36:39.353Z,11.70
2023-10-26T21:41:46.574Z,11.80
2023-10-26T21:46:53.680Z,11.70
2023-10-26T21:52:00.995Z,11.60
2023-10-26T21:57:08.291Z,11.50
2023-10-26T22:02:16.140Z,11.50
2023-10-26T22:07:23.318Z,11.60
2023-10-26T22:12:30.230Z,11.60
2023-10-26T22:17:38.060Z,11.60
2023-10-26T22:22:45.135Z,11.50
2023-10-26T22:27:52.769Z,11.60
2023-10-26T22:33:00.384Z,11.60
2023-10-26T22:38:07.702Z,11.50
2023-10-26T22:43:16.034Z,11.40
2023-10-26T22:48:23.182Z,11.40
2023-10-26T22:53:30.383Z,11.40
2023-10-26T22:58:37.582Z,11.40
2023-10-26T23:03:45.870Z,11.50
2023-10-26T23:08:53.063Z,11.10
2023-10-26T23:14:01.245Z,11.10
2023-10-26T23:19:08.428Z,11.10
2023-10-26T23:24:15.277Z,11.00
2023-10-26T23:29:23.132Z,11.10
2023-10-26T23:34:32.107Z,11.20
2023-10-26T23:39:39.251Z,11.30
2023-10-26T23:44:46.453Z,11.20
2023-10-26T23:49:54.712Z,11.40
2023-10-26T23:55:01.860Z,11.30
